Terminal Aerodrome Forecast
Issued by NWS Green Bay, WI

Home | Current Version | Previous Version | Graphics & Text | Print | Product List | Glossary On
Versions: 1 2 3 4 5 6 7 8 9 10 11 12 13 14 15 16 17 18 19 20
000
FTUS43 KGRB 262334
TAFGRB
TAF
KGRB 262334Z 2700/2724 23005KT P6SM SCT100 SCT250
     FM270800 27003KT P6SM VCSH SCT070 BKN120
      TEMPO 2708/2712 5SM BR
     FM271400 30004KT P6SM VCSH SCT060 OVC120
     FM272000 02009KT P6SM VCSH BKN060 PROB30 2720/2724 4SM -SHRA
      BKN040=

USA.gov is the U.S. government's official web portal to all federal, state and local government web resources and services.